createdAt,value
2017-11-18T20:48:30.644Z,100370.98
2017-11-18T20:50:58.969Z,100384.61
2017-11-18T20:53:27.343Z,100392.23
2017-11-18T20:55:55.709Z,100387.45
2017-11-18T20:58:24.824Z,100392.27
2017-11-18T21:00:54.324Z,100391.41
2017-11-18T21:03:22.732Z,100383.98
2017-11-18T21:05:51.049Z,100385.28
2017-11-18T21:08:20.132Z,100388.77
2017-11-18T21:10:48.482Z,100383.96
2017-11-18T21:13:16.839Z,100388.01
2017-11-18T21:15:45.197Z,100386.34
2017-11-18T21:18:13.576Z,100388.09
2017-11-18T21:20:43.368Z,100381.09
2017-11-18T21:23:11.721Z,100381.98
2017-11-18T21:25:40.057Z,100381.59
2017-11-18T21:28:09.101Z,100381.61
2017-11-18T21:30:38.024Z,100386.95
2017-11-18T21:33:06.392Z,100386.52
2017-11-18T21:35:34.719Z,100389.08
2017-11-18T21:38:03.094Z,100387.32
2017-11-18T21:40:31.448Z,100390.36
2017-11-18T21:42:59.773Z,100387.72
2017-11-18T21:45:28.168Z,100382.45
2017-11-18T21:47:56.519Z,100380.20
2017-11-18T21:50:26.158Z,100381.05
2017-11-18T21:52:55.303Z,100380.13
2017-11-18T21:55:23.663Z,100377.47
2017-11-18T21:57:51.985Z,100383.63
2017-11-18T22:00:20.380Z,100388.00
2017-11-18T22:02:49.445Z,100386.17
2017-11-18T22:05:17.821Z,100380.44
2017-11-18T22:07:46.200Z,100365.11
2017-11-18T22:10:15.136Z,100368.96
2017-11-18T22:12:44.272Z,100369.39
2017-11-18T22:15:12.596Z,100371.55
2017-11-18T22:17:41.736Z,100361.90
2017-11-18T22:20:10.071Z,100361.85
2017-11-18T22:22:38.420Z,100360.08
2017-11-18T22:25:07.103Z,100361.83
2017-11-18T22:27:35.421Z,100353.48
2017-11-18T22:30:03.752Z,100360.04
2017-11-18T22:32:32.140Z,100352.97
2017-11-18T22:35:00.500Z,100351.22
2017-11-18T22:37:28.843Z,100345.56
2017-11-18T22:39:57.985Z,100341.13
2017-11-18T22:42:26.325Z,100343.95
2017-11-18T22:44:54.727Z,100344.80
2017-11-18T22:47:23.103Z,100347.36
2017-11-18T22:49:51.467Z,100342.97
2017-11-18T22:52:19.918Z,100344.25
2017-11-18T22:54:48.227Z,100350.85
2017-11-18T22:57:16.619Z,100356.10
2017-11-18T22:59:44.945Z,100348.26
2017-11-18T23:02:14.109Z,100344.72
2017-11-18T23:04:42.495Z,100344.71
2017-11-18T23:07:10.863Z,100338.11
2017-11-18T23:09:39.178Z,100338.05
2017-11-18T23:12:08.279Z,100340.22
2017-11-18T23:14:37.403Z,100329.67
2017-11-18T23:17:05.749Z,100334.03
2017-11-18T23:19:34.063Z,100335.30
2017-11-18T23:22:02.487Z,100340.09
2017-11-18T23:24:30.843Z,100329.22
2017-11-18T23:26:59.193Z,100329.16
2017-11-18T23:29:28.407Z,100323.88
2017-11-18T23:31:56.790Z,100326.48
2017-11-18T23:34:25.110Z,100324.27
2017-11-18T23:36:54.212Z,100326.17
2017-11-18T23:39:23.407Z,100321.34
2017-11-18T23:41:52.555Z,100322.20
2017-11-18T23:44:20.943Z,100320.92
2017-11-18T23:46:49.334Z,100323.95
2017-11-18T23:49:17.663Z,100314.20
2017-11-18T23:51:46.022Z,100316.38
2017-11-18T23:54:15.151Z,100312.78
2017-11-18T23:56:43.522Z,100306.66
2017-11-18T23:59:11.891Z,100307.09
